sensor_id;sensor_type;location;lat;lon;timestamp;temperature;humidity
10171;DHT22;5127;50.922;6.988;2024-03-23T00:55:23;11.90;78.70
10171;DHT22;5127;50.922;6.988;2024-03-23T00:57:50;11.90;78.90
10171;DHT22;5127;50.922;6.988;2024-03-23T01:00:17;11.80;78.90
10171;DHT22;5127;50.922;6.988;2024-03-23T01:02:44;11.80;79.10
10171;DHT22;5127;50.922;6.988;2024-03-23T01:05:10;11.80;79.30
10171;DHT22;5127;50.922;6.988;2024-03-23T01:07:38;11.80;80.10
10171;DHT22;5127;50.922;6.988;2024-03-23T01:10:05;11.80;79.50
10171;DHT22;5127;50.922;6.988;2024-03-23T01:12:33;11.80;79.60
10171;DHT22;5127;50.922;6.988;2024-03-23T01:14:59;11.90;79.70
10171;DHT22;5127;50.922;6.988;2024-03-23T01:17:27;11.90;79.70
10171;DHT22;5127;50.922;6.988;2024-03-23T01:19:53;12.00;79.70
10171;DHT22;5127;50.922;6.988;2024-03-23T01:22:20;11.90;79.60
10171;DHT22;5127;50.922;6.988;2024-03-23T01:24:46;11.80;79.50
10171;DHT22;5127;50.922;6.988;2024-03-23T01:27:13;11.80;79.50
10171;DHT22;5127;50.922;6.988;2024-03-23T01:29:41;11.80;79.50
10171;DHT22;5127;50.922;6.988;2024-03-23T01:32:09;11.80;79.30
10171;DHT22;5127;50.922;6.988;2024-03-23T01:34:35;11.70;79.00
10171;DHT22;5127;50.922;6.988;2024-03-23T01:37:02;11.70;78.80
10171;DHT22;5127;50.922;6.988;2024-03-23T01:39:28;11.60;78.50
10171;DHT22;5127;50.922;6.988;2024-03-23T01:41:56;11.50;78.50
10171;DHT22;5127;50.922;6.988;2024-03-23T01:44:22;11.50;78.50
10171;DHT22;5127;50.922;6.988;2024-03-23T01:46:51;11.40;78.60
10171;DHT22;5127;50.922;6.988;2024-03-23T01:49:17;11.30;78.70
10171;DHT22;5127;50.922;6.988;2024-03-23T01:51:45;11.20;78.80
10171;DHT22;5127;50.922;6.988;2024-03-23T01:54:11;11.20;78.80
10171;DHT22;5127;50.922;6.988;2024-03-23T01:56:39;11.20;78.90
10171;DHT22;5127;50.922;6.988;2024-03-23T01:59:05;11.10;78.90
10171;DHT22;5127;50.922;6.988;2024-03-23T02:01:34;11.10;79.00
10171;DHT22;5127;50.922;6.988;2024-03-23T02:04:03;11.10;79.30
10171;DHT22;5127;50.922;6.988;2024-03-23T02:06:31;11.00;79.10
10171;DHT22;5127;50.922;6.988;2024-03-23T02:08:57;11.00;79.10
10171;DHT22;5127;50.922;6.988;2024-03-23T02:11:24;10.90;79.10
10171;DHT22;5127;50.922;6.988;2024-03-23T02:13:51;10.90;79.10
10171;DHT22;5127;50.922;6.988;2024-03-23T02:16:18;10.90;79.30
10171;DHT22;5127;50.922;6.988;2024-03-23T02:18:45;10.90;79.30
10171;DHT22;5127;50.922;6.988;2024-03-23T02:21:13;10.80;79.30
10171;DHT22;5127;50.922;6.988;2024-03-23T02:23:41;10.80;79.50
10171;DHT22;5127;50.922;6.988;2024-03-23T02:26:08;10.80;79.60
10171;DHT22;5127;50.922;6.988;2024-03-23T02:28:34;10.80;79.60
10171;DHT22;5127;50.922;6.988;2024-03-23T02:31:02;10.80;79.50
10171;DHT22;5127;50.922;6.988;2024-03-23T02:33:30;10.80;79.50
10171;DHT22;5127;50.922;6.988;2024-03-23T02:35:58;10.70;79.40
10171;DHT22;5127;50.922;6.988;2024-03-23T02:38:25;10.70;79.40
10171;DHT22;5127;50.922;6.988;2024-03-23T02:40:52;10.70;79.40
10171;DHT22;5127;50.922;6.988;2024-03-23T02:43:20;10.60;79.20
10171;DHT22;5127;50.922;6.988;2024-03-23T02:45:46;10.60;79.40
10171;DHT22;5127;50.922;6.988;2024-03-23T02:48:13;10.60;79.50
10171;DHT22;5127;50.922;6.988;2024-03-23T02:50:40;10.50;79.40
10171;DHT22;5127;50.922;6.988;2024-03-23T02:53:07;10.50;79.30
10171;DHT22;5127;50.922;6.988;2024-03-23T02:55:33;10.50;79.20
10171;DHT22;5127;50.922;6.988;2024-03-23T02:58:02;10.40;79.00
10171;DHT22;5127;50.922;6.988;2024-03-23T03:00:28;10.40;78.90
10171;DHT22;5127;50.922;6.988;2024-03-23T03:02:55;10.30;78.80
10171;DHT22;5127;50.922;6.988;2024-03-23T03:05:22;10.30;78.80
10171;DHT22;5127;50.922;6.988;2024-03-23T03:07:49;10.20;78.70
10171;DHT22;5127;50.922;6.988;2024-03-23T03:10:15;10.20;78.60
10171;DHT22;5127;50.922;6.988;2024-03-23T03:12:42;10.10;78.50
10171;DHT22;5127;50.922;6.988;2024-03-23T03:15:11;10.00;78.40
10171;DHT22;5127;50.922;6.988;2024-03-23T03:17:38;10.00;78.50
10171;DHT22;5127;50.922;6.988;2024-03-23T03:20:05;10.00;78.60
10171;DHT22;5127;50.922;6.988;2024-03-23T03:22:33;9.90;79.80
10171;DHT22;5127;50.922;6.988;2024-03-23T03:24:59;9.90;79.80
10171;DHT22;5127;50.922;6.988;2024-03-23T03:27:28;9.80;79.70
10171;DHT22;5127;50.922;6.988;2024-03-23T03:29:54;9.80;79.70
10171;DHT22;5127;50.922;6.988;2024-03-23T03:32:23;9.80;80.00
10171;DHT22;5127;50.922;6.988;2024-03-23T03:34:49;9.70;80.00
10171;DHT22;5127;50.922;6.988;2024-03-23T03:37:16;9.70;80.20
10171;DHT22;5127;50.922;6.988;2024-03-23T03:39:43;9.70;80.10
10171;DHT22;5127;50.922;6.988;2024-03-23T03:42:10;9.70;80.00
10171;DHT22;5127;50.922;6.988;2024-03-23T03:44:37;9.70;80.00
10171;DHT22;5127;50.922;6.988;2024-03-23T03:47:06;9.70;80.00
10171;DHT22;5127;50.922;6.988;2024-03-23T03:49:34;9.70;80.10
10171;DHT22;5127;50.922;6.988;2024-03-23T03:52:01;9.70;80.30
10171;DHT22;5127;50.922;6.988;2024-03-23T03:54:28;9.70;80.50
10171;DHT22;5127;50.922;6.988;2024-03-23T03:56:55;9.70;80.60
10171;DHT22;5127;50.922;6.988;2024-03-23T03:59:21;9.70;80.70
10171;DHT22;5127;50.922;6.988;2024-03-23T04:01:48;9.70;80.60
10171;DHT22;5127;50.922;6.988;2024-03-23T04:04:15;9.70;80.60
10171;DHT22;5127;50.922;6.988;2024-03-23T04:06:44;9.70;80.60
10171;DHT22;5127;50.922;6.988;2024-03-23T04:09:10;9.70;80.50
10171;DHT22;5127;50.922;6.988;2024-03-23T04:11:38;9.70;80.60
10171;DHT22;5127;50.922;6.988;2024-03-23T04:14:04;9.70;80.70
10171;DHT22;5127;50.922;6.988;2024-03-23T04:16:34;9.70;80.80
10171;DHT22;5127;50.922;6.988;2024-03-23T04:19:01;9.80;80.90
10171;DHT22;5127;50.922;6.988;2024-03-23T04:21:28;9.80;81.00
10171;DHT22;5127;50.922;6.988;2024-03-23T04:23:56;9.80;81.10
10171;DHT22;5127;50.922;6.988;2024-03-23T04:26:23;9.80;81.00
10171;DHT22;5127;50.922;6.988;2024-03-23T04:28:51;9.80;81.00
10171;DHT22;5127;50.922;6.988;2024-03-23T04:31:17;9.80;80.90
10171;DHT22;5127;50.922;6.988;2024-03-23T04:33:44;9.80;80.90
10171;DHT22;5127;50.922;6.988;2024-03-23T04:36:10;9.90;80.90
10171;DHT22;5127;50.922;6.988;2024-03-23T04:38:38;9.90;80.80
10171;DHT22;5127;50.922;6.988;2024-03-23T04:41:06;9.90;80.80
10171;DHT22;5127;50.922;6.988;2024-03-23T04:43:34;9.90;80.80
10171;DHT22;5127;50.922;6.988;2024-03-23T04:46:01;9.80;80.70
10171;DHT22;5127;50.922;6.988;2024-03-23T04:48:28;9.80;80.60
10171;DHT22;5127;50.922;6.988;2024-03-23T04:50:55;9.80;80.50
10171;DHT22;5127;50.922;6.988;2024-03-23T04:53:23;9.80;80.60
10171;DHT22;5127;50.922;6.988;2024-03-23T04:55:55;9.80;80.70
10171;DHT22;5127;50.922;6.988;2024-03-23T04:58:23;9.70;80.60
10171;DHT22;5127;50.922;6.988;2024-03-23T05:00:53;9.80;80.80
10171;DHT22;5127;50.922;6.988;2024-03-23T05:03:21;9.80;80.70
10171;DHT22;5127;50.922;6.988;2024-03-23T05:05:47;9.80;80.90
10171;DHT22;5127;50.922;6.988;2024-03-23T05:08:15;9.80;80.90
10171;DHT22;5127;50.922;6.988;2024-03-23T05:10:42;9.80;81.00
10171;DHT22;5127;50.922;6.988;2024-03-23T05:13:09;9.80;81.00
10171;DHT22;5127;50.922;6.988;2024-03-23T05:15:37;9.80;81.00
10171;DHT22;5127;50.922;6.988;2024-03-23T05:18:05;9.80;81.10
10171;DHT22;5127;50.922;6.988;2024-03-23T05:20:32;9.80;81.20
10171;DHT22;5127;50.922;6.988;2024-03-23T05:22:59;9.80;81.20
10171;DHT22;5127;50.922;6.988;2024-03-23T05:25:26;9.80;81.20
10171;DHT22;5127;50.922;6.988;2024-03-23T05:27:53;9.90;81.30
10171;DHT22;5127;50.922;6.988;2024-03-23T05:30:19;9.90;81.30
10171;DHT22;5127;50.922;6.988;2024-03-23T05:32:48;9.90;81.30
10171;DHT22;5127;50.922;6.988;2024-03-23T05:35:14;9.90;81.10
10171;DHT22;5127;50.922;6.988;2024-03-23T05:37:41;9.90;81.10
10171;DHT22;5127;50.922;6.988;2024-03-23T05:40:08;9.90;81.10
10171;DHT22;5127;50.922;6.988;2024-03-23T05:42:36;9.90;81.10
10171;DHT22;5127;50.922;6.988;2024-03-23T05:45:03;9.90;81.10
10171;DHT22;5127;50.922;6.988;2024-03-23T05:47:32;9.90;81.10
10171;DHT22;5127;50.922;6.988;2024-03-23T05:50:00;9.90;81.20
10171;DHT22;5127;50.922;6.988;2024-03-23T05:52:28;9.90;81.20
10171;DHT22;5127;50.922;6.988;2024-03-23T05:54:54;9.90;81.30
10171;DHT22;5127;50.922;6.988;2024-03-23T05:57:21;9.90;81.40
10171;DHT22;5127;50.922;6.988;2024-03-23T05:59:49;9.90;81.40
10171;DHT22;5127;50.922;6.988;2024-03-23T06:02:15;10.00;81.10
10171;DHT22;5127;50.922;6.988;2024-03-23T06:04:45;10.00;80.40
10171;DHT22;5127;50.922;6.988;2024-03-23T06:07:12;9.90;81.30
10171;DHT22;5127;50.922;6.988;2024-03-23T06:09:41;10.00;80.30
10171;DHT22;5127;50.922;6.988;2024-03-23T06:12:07;10.00;80.40
10171;DHT22;5127;50.922;6.988;2024-03-23T06:14:35;10.00;80.40
10171;DHT22;5127;50.922;6.988;2024-03-23T06:17:01;10.00;80.40
10171;DHT22;5127;50.922;6.988;2024-03-23T06:19:28;10.00;80.30
10171;DHT22;5127;50.922;6.988;2024-03-23T06:21:55;10.00;80.30
10171;DHT22;5127;50.922;6.988;2024-03-23T06:24:23;10.00;80.20
10171;DHT22;5127;50.922;6.988;2024-03-23T06:26:50;10.00;80.20
10171;DHT22;5127;50.922;6.988;2024-03-23T06:29:17;10.00;80.30
10171;DHT22;5127;50.922;6.988;2024-03-23T06:31:53;10.00;80.30
10171;DHT22;5127;50.922;6.988;2024-03-23T06:34:19;10.00;79.80
10171;DHT22;5127;50.922;6.988;2024-03-23T06:36:47;10.00;80.20
10171;DHT22;5127;50.922;6.988;2024-03-23T06:39:13;10.00;80.30
10171;DHT22;5127;50.922;6.988;2024-03-23T06:41:42;10.00;80.30
10171;DHT22;5127;50.922;6.988;2024-03-23T06:44:09;10.00;80.40
10171;DHT22;5127;50.922;6.988;2024-03-23T06:46:36;10.00;80.40
10171;DHT22;5127;50.922;6.988;2024-03-23T06:49:02;10.00;80.40
10171;DHT22;5127;50.922;6.988;2024-03-23T06:51:29;10.00;80.40
10171;DHT22;5127;50.922;6.988;2024-03-23T06:53:56;10.00;80.40
10171;DHT22;5127;50.922;6.988;2024-03-23T06:56:23;10.00;80.80
10171;DHT22;5127;50.922;6.988;2024-03-23T06:58:51;10.00;81.20
10171;DHT22;5127;50.922;6.988;2024-03-23T07:01:18;10.10;81.60
10171;DHT22;5127;50.922;6.988;2024-03-23T07:03:44;10.10;81.90
10171;DHT22;5127;50.922;6.988;2024-03-23T07:06:11;10.20;83.00
10171;DHT22;5127;50.922;6.988;2024-03-23T07:08:38;10.30;82.60
10171;DHT22;5127;50.922;6.988;2024-03-23T07:11:05;10.40;83.00
10171;DHT22;5127;50.922;6.988;2024-03-23T07:13:31;10.50;83.40
10171;DHT22;5127;50.922;6.988;2024-03-23T07:16:00;10.70;83.50
10171;DHT22;5127;50.922;6.988;2024-03-23T07:18:26;10.80;83.50
10171;DHT22;5127;50.922;6.988;2024-03-23T07:20:54;10.90;83.40
10171;DHT22;5127;50.922;6.988;2024-03-23T07:23:20;11.10;83.60
10171;DHT22;5127;50.922;6.988;2024-03-23T07:25:56;11.20;83.90
10171;DHT22;5127;50.922;6.988;2024-03-23T07:28:22;11.30;83.60
10171;DHT22;5127;50.922;6.988;2024-03-23T07:31:02;11.50;85.30
10171;DHT22;5127;50.922;6.988;2024-03-23T07:33:28;11.80;84.90
10171;DHT22;5127;50.922;6.988;2024-03-23T07:35:55;12.10;87.60
10171;DHT22;5127;50.922;6.988;2024-03-23T07:38:23;12.40;88.70
10171;DHT22;5127;50.922;6.988;2024-03-23T07:40:50;12.80;89.60
10171;DHT22;5127;50.922;6.988;2024-03-23T07:43:21;13.20;90.00
10171;DHT22;5127;50.922;6.988;2024-03-23T07:45:51;13.70;90.20
10171;DHT22;5127;50.922;6.988;2024-03-23T07:48:21;14.10;89.40
10171;DHT22;5127;50.922;6.988;2024-03-23T07:50:57;14.50;89.10
10171;DHT22;5127;50.922;6.988;2024-03-23T07:53:23;14.80;87.20
10171;DHT22;5127;50.922;6.988;2024-03-23T07:55:57;15.10;87.80
10171;DHT22;5127;50.922;6.988;2024-03-23T07:58:24;15.40;84.90
10171;DHT22;5127;50.922;6.988;2024-03-23T08:00:52;15.60;85.80
10171;DHT22;5127;50.922;6.988;2024-03-23T08:03:20;15.70;84.50
10171;DHT22;5127;50.922;6.988;2024-03-23T08:05:48;15.80;83.20
10171;DHT22;5127;50.922;6.988;2024-03-23T08:08:15;15.90;83.80
10171;DHT22;5127;50.922;6.988;2024-03-23T08:10:49;15.90;84.00
10171;DHT22;5127;50.922;6.988;2024-03-23T08:13:15;16.00;82.20
10171;DHT22;5127;50.922;6.988;2024-03-23T08:15:43;16.20;84.20
10171;DHT22;5127;50.922;6.988;2024-03-23T08:18:10;16.30;83.50
10171;DHT22;5127;50.922;6.988;2024-03-23T08:20:39;16.40;83.00
10171;DHT22;5127;50.922;6.988;2024-03-23T08:23:06;16.50;83.00
10171;DHT22;5127;50.922;6.988;2024-03-23T08:25:34;16.60;83.00
10171;DHT22;5127;50.922;6.988;2024-03-23T08:28:00;16.80;83.40
10171;DHT22;5127;50.922;6.988;2024-03-23T08:30:28;16.90;82.90
10171;DHT22;5127;50.922;6.988;2024-03-23T08:32:54;17.00;82.10
10171;DHT22;5127;50.922;6.988;2024-03-23T08:35:22;17.20;81.00
10171;DHT22;5127;50.922;6.988;2024-03-23T08:37:49;17.20;79.20
10171;DHT22;5127;50.922;6.988;2024-03-23T08:40:17;17.10;77.10
10171;DHT22;5127;50.922;6.988;2024-03-23T08:42:43;16.90;76.00
10171;DHT22;5127;50.922;6.988;2024-03-23T08:45:11;16.70;74.80
10171;DHT22;5127;50.922;6.988;2024-03-23T08:47:37;16.50;73.90
10171;DHT22;5127;50.922;6.988;2024-03-23T08:50:05;16.10;73.70
10171;DHT22;5127;50.922;6.988;2024-03-23T08:52:31;15.80;75.40
10171;DHT22;5127;50.922;6.988;2024-03-23T08:55:00;15.70;77.60
10171;DHT22;5127;50.922;6.988;2024-03-23T08:57:27;15.60;78.10
10171;DHT22;5127;50.922;6.988;2024-03-23T08:59:54;15.60;79.70
10171;DHT22;5127;50.922;6.988;2024-03-23T09:02:20;15.60;79.10
10171;DHT22;5127;50.922;6.988;2024-03-23T09:04:47;15.60;78.80
10171;DHT22;5127;50.922;6.988;2024-03-23T09:07:14;15.60;78.60
10171;DHT22;5127;50.922;6.988;2024-03-23T09:09:41;15.60;79.30
10171;DHT22;5127;50.922;6.988;2024-03-23T09:12:09;15.60;79.90
10171;DHT22;5127;50.922;6.988;2024-03-23T09:14:36;15.60;79.50
10171;DHT22;5127;50.922;6.988;2024-03-23T09:17:03;15.70;79.40
10171;DHT22;5127;50.922;6.988;2024-03-23T09:19:30;15.70;79.10
10171;DHT22;5127;50.922;6.988;2024-03-23T09:21:56;15.70;79.00
10171;DHT22;5127;50.922;6.988;2024-03-23T09:24:23;15.60;78.20
10171;DHT22;5127;50.922;6.988;2024-03-23T09:26:51;15.50;77.70
10171;DHT22;5127;50.922;6.988;2024-03-23T09:29:20;15.50;76.30
10171;DHT22;5127;50.922;6.988;2024-03-23T09:31:47;15.30;75.60
10171;DHT22;5127;50.922;6.988;2024-03-23T09:34:14;15.10;75.90
10171;DHT22;5127;50.922;6.988;2024-03-23T09:36:41;14.90;75.60
10171;DHT22;5127;50.922;6.988;2024-03-23T09:39:08;14.70;75.90
10171;DHT22;5127;50.922;6.988;2024-03-23T09:41:36;14.60;76.30
10171;DHT22;5127;50.922;6.988;2024-03-23T09:44:05;14.40;76.30
10171;DHT22;5127;50.922;6.988;2024-03-23T09:46:32;14.30;75.90
10171;DHT22;5127;50.922;6.988;2024-03-23T09:49:02;14.10;76.10
10171;DHT22;5127;50.922;6.988;2024-03-23T09:51:31;14.00;77.00
10171;DHT22;5127;50.922;6.988;2024-03-23T09:53:58;14.00;77.50
10171;DHT22;5127;50.922;6.988;2024-03-23T09:56:24;14.00;77.70
10171;DHT22;5127;50.922;6.988;2024-03-23T09:58:51;13.90;77.90
10171;DHT22;5127;50.922;6.988;2024-03-23T10:01:25;14.00;78.20
10171;DHT22;5127;50.922;6.988;2024-03-23T10:03:55;14.10;78.60
10171;DHT22;5127;50.922;6.988;2024-03-23T10:06:22;14.10;78.50
10171;DHT22;5127;50.922;6.988;2024-03-23T10:08:51;14.20;79.30
10171;DHT22;5127;50.922;6.988;2024-03-23T10:11:18;14.30;78.70
10171;DHT22;5127;50.922;6.988;2024-03-23T10:13:47;14.40;78.60
10171;DHT22;5127;50.922;6.988;2024-03-23T10:16:21;14.40;78.80
10171;DHT22;5127;50.922;6.988;2024-03-23T10:18:49;14.50;76.20
10171;DHT22;5127;50.922;6.988;2024-03-23T10:21:18;14.50;78.10
10171;DHT22;5127;50.922;6.988;2024-03-23T10:23:45;14.50;77.20
10171;DHT22;5127;50.922;6.988;2024-03-23T10:26:13;14.40;77.50
10171;DHT22;5127;50.922;6.988;2024-03-23T10:28:54;14.40;77.30
10171;DHT22;5127;50.922;6.988;2024-03-23T10:31:23;14.40;75.60
10171;DHT22;5127;50.922;6.988;2024-03-23T10:33:50;14.40;77.80
10171;DHT22;5127;50.922;6.988;2024-03-23T10:36:19;14.30;77.60
10171;DHT22;5127;50.922;6.988;2024-03-23T10:38:48;14.40;76.30
10171;DHT22;5127;50.922;6.988;2024-03-23T10:41:15;14.30;76.60
10171;DHT22;5127;50.922;6.988;2024-03-23T10:43:44;14.20;74.90
10171;DHT22;5127;50.922;6.988;2024-03-23T10:46:11;14.10;75.00
10171;DHT22;5127;50.922;6.988;2024-03-23T10:48:38;14.10;74.80
10171;DHT22;5127;50.922;6.988;2024-03-23T10:51:07;13.90;74.40
10171;DHT22;5127;50.922;6.988;2024-03-23T10:53:36;13.70;74.60
10171;DHT22;5127;50.922;6.988;2024-03-23T10:56:04;13.60;75.30
10171;DHT22;5127;50.922;6.988;2024-03-23T10:58:36;13.50;75.40
10171;DHT22;5127;50.922;6.988;2024-03-23T11:01:03;13.40;75.90
10171;DHT22;5127;50.922;6.988;2024-03-23T11:03:32;13.40;76.70
10171;DHT22;5127;50.922;6.988;2024-03-23T11:05:59;13.40;77.50
10171;DHT22;5127;50.922;6.988;2024-03-23T11:08:31;13.40;78.30
10171;DHT22;5127;50.922;6.988;2024-03-23T11:11:17;13.40;77.90
10171;DHT22;5127;50.922;6.988;2024-03-23T11:13:47;13.50;76.40
10171;DHT22;5127;50.922;6.988;2024-03-23T11:16:14;13.50;79.10
10171;DHT22;5127;50.922;6.988;2024-03-23T11:18:42;13.60;79.50
10171;DHT22;5127;50.922;6.988;2024-03-23T11:21:10;13.60;79.40
10171;DHT22;5127;50.922;6.988;2024-03-23T11:23:37;13.80;79.30
10171;DHT22;5127;50.922;6.988;2024-03-23T11:26:07;13.80;78.90
10171;DHT22;5127;50.922;6.988;2024-03-23T11:28:36;13.80;78.20
10171;DHT22;5127;50.922;6.988;2024-03-23T11:31:09;13.90;78.60
10171;DHT22;5127;50.922;6.988;2024-03-23T11:33:37;13.90;77.40
10171;DHT22;5127;50.922;6.988;2024-03-23T11:36:04;14.00;78.20
10171;DHT22;5127;50.922;6.988;2024-03-23T11:38:40;13.90;77.20
10171;DHT22;5127;50.922;6.988;2024-03-23T11:41:06;13.90;75.60
10171;DHT22;5127;50.922;6.988;2024-03-23T11:43:35;13.80;76.10
10171;DHT22;5127;50.922;6.988;2024-03-23T11:46:01;13.60;75.80
10171;DHT22;5127;50.922;6.988;2024-03-23T11:48:30;13.50;75.60
10171;DHT22;5127;50.922;6.988;2024-03-23T11:50:57;13.40;75.60
10171;DHT22;5127;50.922;6.988;2024-03-23T11:53:25;13.30;75.60
10171;DHT22;5127;50.922;6.988;2024-03-23T11:55:57;13.20;75.80
10171;DHT22;5127;50.922;6.988;2024-03-23T11:58:25;13.10;75.20
10171;DHT22;5127;50.922;6.988;2024-03-23T12:00:56;13.00;75.90
10171;DHT22;5127;50.922;6.988;2024-03-23T12:03:25;12.90;75.80
10171;DHT22;5127;50.922;6.988;2024-03-23T12:05:53;12.80;76.70
10171;DHT22;5127;50.922;6.988;2024-03-23T12:08:22;12.80;76.60
10171;DHT22;5127;50.922;6.988;2024-03-23T12:10:51;12.70;76.20
10171;DHT22;5127;50.922;6.988;2024-03-23T12:13:20;12.70;76.10
10171;DHT22;5127;50.922;6.988;2024-03-23T12:15:47;12.60;75.80
10171;DHT22;5127;50.922;6.988;2024-03-23T12:18:16;12.50;75.80
10171;DHT22;5127;50.922;6.988;2024-03-23T12:20:43;12.40;75.40
10171;DHT22;5127;50.922;6.988;2024-03-23T12:23:11;12.40;76.40
10171;DHT22;5127;50.922;6.988;2024-03-23T12:25:41;12.30;76.50
10171;DHT22;5127;50.922;6.988;2024-03-23T12:28:08;12.30;76.80
10171;DHT22;5127;50.922;6.988;2024-03-23T12:30:36;12.30;76.80
10171;DHT22;5127;50.922;6.988;2024-03-23T12:33:05;12.30;76.80
10171;DHT22;5127;50.922;6.988;2024-03-23T12:35:33;12.40;76.30
10171;DHT22;5127;50.922;6.988;2024-03-23T12:38:01;12.20;75.40
10171;DHT22;5127;50.922;6.988;2024-03-23T12:40:27;12.20;75.40
10171;DHT22;5127;50.922;6.988;2024-03-23T12:42:54;12.00;74.70
10171;DHT22;5127;50.922;6.988;2024-03-23T12:45:22;12.00;74.80
10171;DHT22;5127;50.922;6.988;2024-03-23T12:47:49;11.80;74.70
10171;DHT22;5127;50.922;6.988;2024-03-23T12:50:18;11.70;74.80
10171;DHT22;5127;50.922;6.988;2024-03-23T12:52:47;11.50;75.00
10171;DHT22;5127;50.922;6.988;2024-03-23T12:55:14;11.40;75.00
10171;DHT22;5127;50.922;6.988;2024-03-23T12:57:41;11.30;75.70
10171;DHT22;5127;50.922;6.988;2024-03-23T13:00:08;11.20;75.80
10171;DHT22;5127;50.922;6.988;2024-03-23T13:02:37;11.20;76.10
10171;DHT22;5127;50.922;6.988;2024-03-23T13:05:05;11.20;76.60
10171;DHT22;5127;50.922;6.988;2024-03-23T13:07:34;11.20;76.40
10171;DHT22;5127;50.922;6.988;2024-03-23T13:10:03;11.20;76.40
10171;DHT22;5127;50.922;6.988;2024-03-23T13:12:31;11.20;76.00
10171;DHT22;5127;50.922;6.988;2024-03-23T13:14:57;11.20;76.50
10171;DHT22;5127;50.922;6.988;2024-03-23T13:17:25;11.30;76.60
10171;DHT22;5127;50.922;6.988;2024-03-23T13:19:52;11.30;76.50
10171;DHT22;5127;50.922;6.988;2024-03-23T13:22:20;11.30;76.40
10171;DHT22;5127;50.922;6.988;2024-03-23T13:24:46;11.40;76.90
10171;DHT22;5127;50.922;6.988;2024-03-23T13:27:15;11.40;77.10
10171;DHT22;5127;50.922;6.988;2024-03-23T13:29:41;11.50;77.40
10171;DHT22;5127;50.922;6.988;2024-03-23T13:32:08;11.50;78.00
10171;DHT22;5127;50.922;6.988;2024-03-23T13:34:35;11.70;78.30
10171;DHT22;5127;50.922;6.988;2024-03-23T13:37:02;11.80;78.30
10171;DHT22;5127;50.922;6.988;2024-03-23T13:39:30;12.00;78.10
10171;DHT22;5127;50.922;6.988;2024-03-23T13:41:57;12.00;77.30
10171;DHT22;5127;50.922;6.988;2024-03-23T13:44:25;12.10;77.50
10171;DHT22;5127;50.922;6.988;2024-03-23T13:46:52;12.20;77.40
10171;DHT22;5127;50.922;6.988;2024-03-23T13:49:25;12.30;77.50
10171;DHT22;5127;50.922;6.988;2024-03-23T13:51:56;12.30;76.10
10171;DHT22;5127;50.922;6.988;2024-03-23T13:54:24;12.40;76.80
10171;DHT22;5127;50.922;6.988;2024-03-23T13:56:51;12.40;76.70
10171;DHT22;5127;50.922;6.988;2024-03-23T13:59:18;12.40;76.70
10171;DHT22;5127;50.922;6.988;2024-03-23T14:01:46;12.50;76.50
10171;DHT22;5127;50.922;6.988;2024-03-23T14:04:13;12.50;76.30
10171;DHT22;5127;50.922;6.988;2024-03-23T14:06:42;12.50;76.40
10171;DHT22;5127;50.922;6.988;2024-03-23T14:09:11;12.50;76.30
10171;DHT22;5127;50.922;6.988;2024-03-23T14:11:38;12.50;75.90
10171;DHT22;5127;50.922;6.988;2024-03-23T14:14:06;12.50;75.10
10171;DHT22;5127;50.922;6.988;2024-03-23T14:16:33;12.40;74.80
10171;DHT22;5127;50.922;6.988;2024-03-23T14:19:01;12.40;74.80
10171;DHT22;5127;50.922;6.988;2024-03-23T14:21:30;12.30;74.30
10171;DHT22;5127;50.922;6.988;2024-03-23T14:23:57;12.40;74.80
10171;DHT22;5127;50.922;6.988;2024-03-23T14:26:24;12.10;74.60
10171;DHT22;5127;50.922;6.988;2024-03-23T14:28:51;12.20;74.70
10171;DHT22;5127;50.922;6.988;2024-03-23T14:31:18;12.20;74.50
10171;DHT22;5127;50.922;6.988;2024-03-23T14:33:45;12.20;74.70
10171;DHT22;5127;50.922;6.988;2024-03-23T14:36:14;12.20;74.60
10171;DHT22;5127;50.922;6.988;2024-03-23T14:38:40;12.20;74.10
10171;DHT22;5127;50.922;6.988;2024-03-23T14:41:08;12.20;74.50
10171;DHT22;5127;50.922;6.988;2024-03-23T14:43:34;12.20;74.30
10171;DHT22;5127;50.922;6.988;2024-03-23T14:46:08;12.20;74.20
10171;DHT22;5127;50.922;6.988;2024-03-23T14:48:35;12.20;73.00
10171;DHT22;5127;50.922;6.988;2024-03-23T14:51:03;12.20;74.00
10171;DHT22;5127;50.922;6.988;2024-03-23T14:53:32;12.20;73.90
10171;DHT22;5127;50.922;6.988;2024-03-23T14:56:00;12.20;73.60
10171;DHT22;5127;50.922;6.988;2024-03-23T14:58:27;12.30;74.20
10171;DHT22;5127;50.922;6.988;2024-03-23T15:01:00;12.20;74.10
10171;DHT22;5127;50.922;6.988;2024-03-23T15:03:26;12.20;72.90
10171;DHT22;5127;50.922;6.988;2024-03-23T15:05:54;12.10;73.30
10171;DHT22;5127;50.922;6.988;2024-03-23T15:08:21;11.90;72.10
10171;DHT22;5127;50.922;6.988;2024-03-23T15:10:50;11.70;71.90
10171;DHT22;5127;50.922;6.988;2024-03-23T15:13:16;11.50;71.70
10171;DHT22;5127;50.922;6.988;2024-03-23T15:15:44;11.30;71.60
10171;DHT22;5127;50.922;6.988;2024-03-23T15:18:11;11.10;71.70
10171;DHT22;5127;50.922;6.988;2024-03-23T15:20:40;10.90;71.80
10171;DHT22;5127;50.922;6.988;2024-03-23T15:23:07;10.70;72.00
10171;DHT22;5127;50.922;6.988;2024-03-23T15:25:35;10.60;72.50
10171;DHT22;5127;50.922;6.988;2024-03-23T15:28:03;10.40;73.20
10171;DHT22;5127;50.922;6.988;2024-03-23T15:30:30;10.30;74.00
10171;DHT22;5127;50.922;6.988;2024-03-23T15:32:56;10.30;74.80
10171;DHT22;5127;50.922;6.988;2024-03-23T15:35:23;10.20;75.40
10171;DHT22;5127;50.922;6.988;2024-03-23T15:37:50;10.20;75.70
10171;DHT22;5127;50.922;6.988;2024-03-23T15:40:17;10.20;75.60
10171;DHT22;5127;50.922;6.988;2024-03-23T15:42:44;10.20;75.80
10171;DHT22;5127;50.922;6.988;2024-03-23T15:45:13;10.20;75.70
10171;DHT22;5127;50.922;6.988;2024-03-23T15:47:39;10.20;75.70
10171;DHT22;5127;50.922;6.988;2024-03-23T15:50:07;10.20;75.70
10171;DHT22;5127;50.922;6.988;2024-03-23T15:52:35;10.20;75.80
10171;DHT22;5127;50.922;6.988;2024-03-23T15:55:03;10.20;76.00
10171;DHT22;5127;50.922;6.988;2024-03-23T15:57:33;10.20;75.80
10171;DHT22;5127;50.922;6.988;2024-03-23T16:00:01;10.20;75.80
10171;DHT22;5127;50.922;6.988;2024-03-23T16:02:39;10.20;75.90
10171;DHT22;5127;50.922;6.988;2024-03-23T16:05:07;10.20;75.80
10171;DHT22;5127;50.922;6.988;2024-03-23T16:07:37;10.20;75.90
10171;DHT22;5127;50.922;6.988;2024-03-23T16:10:05;10.10;76.10
10171;DHT22;5127;50.922;6.988;2024-03-23T16:12:35;10.10;76.30
10171;DHT22;5127;50.922;6.988;2024-03-23T16:15:03;10.10;76.40
10171;DHT22;5127;50.922;6.988;2024-03-23T16:17:31;10.10;76.50
10171;DHT22;5127;50.922;6.988;2024-03-23T16:20:04;10.10;76.60
10171;DHT22;5127;50.922;6.988;2024-03-23T16:22:30;10.20;76.50
10171;DHT22;5127;50.922;6.988;2024-03-23T16:24:58;10.20;76.60
10171;DHT22;5127;50.922;6.988;2024-03-23T16:27:24;10.20;76.90
10171;DHT22;5127;50.922;6.988;2024-03-23T16:29:51;10.20;76.10
10171;DHT22;5127;50.922;6.988;2024-03-23T16:32:17;10.20;76.20
10171;DHT22;5127;50.922;6.988;2024-03-23T16:34:45;10.20;76.30
10171;DHT22;5127;50.922;6.988;2024-03-23T16:37:12;10.20;76.30
10171;DHT22;5127;50.922;6.988;2024-03-23T16:39:39;10.20;76.10
10171;DHT22;5127;50.922;6.988;2024-03-23T16:42:06;10.20;76.40
10171;DHT22;5127;50.922;6.988;2024-03-23T16:44:33;10.20;76.70
10171;DHT22;5127;50.922;6.988;2024-03-23T16:46:59;10.20;76.70